Time;durP1;ratioP1;P1;durP2;ratioP2;P2;SDS_P1;SDS_P2;PMS_P1;PMS_P2;Temp;Humidity;BMP_temperature;BMP_pressure;BME280_temperature;BME280_humidity;BME280_pressure;Samples;Min_cycle;Max_cycle;Signal;HPM_P1;HPM_P2
2021/07/08 15:35:41;;;;;;;4.90;3.65;;;;;;;26.06;47.49;100579.61;1791376;79;23559;-47
2021/07/08 15:39:43;;;;;;;5.15;4.05;;;;;;;26.10;48.00;100583.48;1822485;79;27328;-35
2021/07/08 15:42:10;;;;;;;8.03;5.78;;;;;;;26.09;48.00;100584.53;1793212;80;21004;-35
2021/07/08 15:44:38;;;;;;;5.78;4.00;;;;;;;26.08;47.96;100576.13;1745936;80;21066;-36
2021/07/08 15:47:04;;;;;;;7.95;3.83;;;;;;;26.06;47.94;100576.89;1739746;82;21047;-35
2021/07/08 15:49:31;;;;;;;6.03;3.77;;;;;;;26.04;47.97;100579.05;1777423;79;21345;-35
2021/07/08 15:51:58;;;;;;;7.08;3.65;;;;;;;26.03;47.98;100582.00;1778222;80;21020;-35
2021/07/08 15:54:24;;;;;;;3.60;3.22;;;;;;;26.00;48.00;100580.59;1778087;80;21001;-35
2021/07/08 15:56:50;;;;;;;6.85;3.67;;;;;;;25.99;48.08;100583.03;1778083;80;21488;-37
2021/07/08 15:59:19;;;;;;;5.00;3.50;;;;;;;25.97;48.13;100578.92;1778425;80;21010;-35
2021/07/08 16:01:45;;;;;;;4.05;3.62;;;;;;;25.95;48.25;100576.47;1777999;80;21063;-36
2021/07/08 16:04:11;;;;;;;5.35;4.33;;;;;;;25.93;48.25;100573.17;1778000;80;21000;-36
2021/07/08 16:06:38;;;;;;;3.85;3.35;;;;;;;25.91;48.32;100580.72;1778409;80;21033;-35
2021/07/08 16:09:05;;;;;;;5.95;3.85;;;;;;;25.88;48.39;100575.80;1776354;80;21489;-35
2021/07/08 16:11:31;;;;;;;5.25;4.00;;;;;;;25.87;48.41;100577.69;1778516;80;21024;-35
2021/07/08 16:13:58;;;;;;;5.60;4.22;;;;;;;25.83;48.43;100581.12;1763768;80;21033;-38
2021/07/08 16:30:43;;;;;;;13.62;7.58;;;;;;;28.97;49.40;100572.35;1886533;76;22166;-73
2021/07/08 16:33:10;;;;;;;34.60;8.03;;;;;;;29.59;50.09;100569.81;1862629;77;21023;-75
2021/07/08 16:35:36;;;;;;;17.65;7.92;;;;;;;30.24;48.38;100561.94;1861908;77;21036;-77
2021/07/08 16:38:03;;;;;;;10.80;6.12;;;;;;;30.83;43.79;100572.75;1862944;77;20996;-78
2021/07/08 16:40:30;;;;;;;9.80;5.85;;;;;;;31.18;44.45;100567.66;1863076;77;21510;-77
2021/07/08 16:42:58;;;;;;;9.95;6.53;;;;;;;31.49;44.09;100572.43;1863161;77;20972;-77
2021/07/08 16:45:25;;;;;;;14.60;6.37;;;;;;;31.75;43.34;100564.04;1846721;77;21007;-77
2021/07/08 16:47:51;;;;;;;7.95;6.40;;;;;;;31.97;42.70;100565.80;1843392;77;21035;-79
2021/07/08 16:50:18;;;;;;;7.17;6.47;;;;;;;32.17;42.08;100567.54;1854667;77;21030;-77
2021/07/08 16:52:44;;;;;;;7.72;6.72;;;;;;;32.27;41.92;100567.42;1829229;78;21514;-77
2021/07/08 16:55:11;;;;;;;20.20;7.72;;;;;;;32.33;41.44;100563.52;1828865;78;22192;-78
2021/07/08 16:57:37;;;;;;;14.78;7.50;;;;;;;32.40;41.85;100573.31;1799922;78;20948;-77
2021/07/08 17:00:06;;;;;;;21.68;7.45;;;;;;;32.43;41.55;100580.42;1829400;78;21110;-78
2021/07/08 17:02:35;;;;;;;;;;;;;;;32.46;41.38;100576.32;1836879;77;21523;-78
2021/07/08 17:05:03;;;;;;;7.03;6.30;;;;;;;32.43;40.91;100570.83;1829922;77;20117;-78
2021/07/08 17:07:29;;;;;;;7.40;6.25;;;;;;;32.43;41.75;100567.28;1852998;77;21027;-78
2021/07/08 17:09:55;;;;;;;13.18;7.10;;;;;;;32.43;40.97;100579.61;1863018;77;21071;-78
2021/07/08 17:12:21;;;;;;;6.25;5.65;;;;;;;32.41;41.04;100574.97;1863234;77;20948;-78
2021/07/08 17:14:48;;;;;;;13.43;6.85;;;;;;;32.37;40.91;100574.73;1830368;77;20964;-79
2021/07/08 17:17:16;;;;;;;8.45;6.30;;;;;;;32.33;40.76;100571.73;1829142;78;22110;-83
2021/07/08 17:19:42;;;;;;;9.18;6.17;;;;;;;32.25;40.71;100569.63;1829204;78;21491;-79
2021/07/08 17:22:09;;;;;;;7.20;6.40;;;;;;;32.21;40.82;100574.06;1829326;78;21007;-79
2021/07/08 17:24:35;;;;;;;12.37;6.92;;;;;;;32.15;40.96;100575.22;1830482;77;20971;-78
2021/07/08 17:27:04;;;;;;;20.00;9.33;;;;;;;32.07;41.11;100580.75;1859669;77;21031;-78
2021/07/08 17:29:31;;;;;;;20.15;8.90;;;;;;;31.99;41.11;100580.00;1843549;77;21024;-76
2021/07/08 17:31:57;;;;;;;13.83;8.70;;;;;;;31.92;41.50;100580.89;1829546;78;21511;-79
2021/07/08 17:34:27;;;;;;;18.62;8.63;;;;;;;31.85;41.90;100580.36;1829012;78;21067;-83
2021/07/08 17:36:54;;;;;;;19.27;8.90;;;;;;;31.77;42.19;100576.34;1829392;78;21038;-78
2021/07/08 17:39:20;;;;;;;17.32;7.12;;;;;;;31.70;42.55;100582.67;1866787;76;21480;-77
2021/07/08 17:41:46;;;;;;;8.53;6.65;;;;;;;31.60;42.78;100584.12;1869712;76;20992;-77
2021/07/08 17:44:13;;;;;;;13.10;7.42;;;;;;;31.50;42.82;100577.34;1871411;76;20973;-78
2021/07/08 17:46:39;;;;;;;124.67;13.05;;;;;;;31.42;42.96;100578.22;1867040;76;21003;-78
2021/07/08 17:49:05;;;;;;;62.45;10.58;;;;;;;31.35;43.19;100576.86;1869363;76;22034;-77
2021/07/08 17:51:31;;;;;;;24.20;9.38;;;;;;;31.27;43.40;100571.98;1868745;76;21039;-78
2021/07/08 17:53:57;;;;;;;20.05;9.83;;;;;;;31.16;43.87;100573.42;1868798;76;20969;-77
2021/07/08 17:56:23;;;;;;;25.88;8.03;;;;;;;31.06;44.44;100583.58;1871202;76;21215;-77
2021/07/08 17:58:50;;;;;;;20.55;8.83;;;;;;;30.93;44.83;100577.63;1872254;76;20948;-77
2021/07/08 18:01:16;;;;;;;14.90;7.95;;;;;;;30.81;45.25;100575.75;1868056;76;20937;-77
2021/07/08 18:03:42;;;;;;;23.62;7.67;;;;;;;30.67;45.62;100574.15;1870984;76;21000;-78
2021/07/08 18:06:08;;;;;;;19.70;7.58;;;;;;;30.57;45.89;100572.25;1871169;76;21453;-77
2021/07/08 18:08:34;;;;;;;16.67;8.40;;;;;;;30.46;46.02;100564.36;1868743;76;21408;-82
2021/07/08 18:11:00;;;;;;;18.32;8.88;;;;;;;30.35;46.49;100569.02;1864611;76;20901;-77
2021/07/08 18:13:27;;;;;;;23.87;8.05;;;;;;;30.24;46.82;100566.03;1869000;76;21008;-77
2021/07/08 18:15:53;;;;;;;21.95;8.50;;;;;;;30.12;47.02;100563.04;1871284;76;20965;-77
2021/07/08 18:18:19;;;;;;;19.55;9.38;;;;;;;30.03;47.36;100559.20;1862814;76;20995;-77
2021/07/08 18:20:45;;;;;;;16.32;9.05;;;;;;;29.94;47.75;100559.48;1870077;76;20937;-77
2021/07/08 18:23:13;;;;;;;22.82;11.25;;;;;;;29.83;47.94;100555.12;1868280;76;21575;-78
2021/07/08 18:25:41;;;;;;;22.98;9.43;;;;;;;29.73;48.14;100557.86;1872600;76;20988;-82
2021/07/08 18:28:08;;;;;;;46.70;18.10;;;;;;;29.63;48.35;100555.37;1872407;76;20952;-77
2021/07/08 18:30:35;;;;;;;34.65;14.03;;;;;;;29.51;49.06;100558.07;1868430;76;21692;-77
2021/07/08 18:33:01;;;;;;;16.30;8.53;;;;;;;29.42;49.54;100552.33;1869816;76;20974;-77
2021/07/08 18:35:29;;;;;;;14.95;8.55;;;;;;;29.30;49.65;100553.13;1870632;76;20975;-77
2021/07/08 18:37:56;;;;;;;17.07;8.05;;;;;;;29.19;49.89;100550.92;1871343;76;21007;-79
2021/07/08 18:40:24;;;;;;;12.13;8.70;;;;;;;29.09;50.08;100548.15;1868655;76;21472;-78
2021/07/08 18:42:52;;;;;;;15.18;8.60;;;;;;;29.01;50.34;100559.02;1870872;76;21038;-82
2021/07/08 18:45:20;;;;;;;15.40;8.80;;;;;;;28.92;50.63;100553.81;1865590;76;21294;-78
2021/07/08 18:47:47;;;;;;;15.65;8.83;;;;;;;28.83;51.00;100554.02;1868927;76;20906;-80
2021/07/08 18:50:16;;;;;;;18.35;8.43;;;;;;;28.73;51.48;100558.34;1865300;76;20978;-81
2021/07/08 18:52:42;;;;;;;14.58;7.95;;;;;;;28.63;51.54;100563.75;1870094;76;20953;-79
2021/07/08 18:55:13;;;;;;;13.08;7.28;;;;;;;28.55;51.64;100573.78;1870404;76;21038;-78
2021/07/08 18:57:38;;;;;;;8.93;6.03;;;;;;;28.48;51.62;100572.63;1866724;75;21016;-77
2021/07/08 19:00:08;;;;;;;11.65;8.43;;;;;;;28.41;51.60;100573.38;1866662;76;20984;-78
2021/07/08 19:02:34;;;;;;;26.65;9.63;;;;;;;28.34;51.60;100576.34;1868958;76;20972;-79
2021/07/08 19:05:00;;;;;;;12.45;7.65;;;;;;;28.29;51.71;100580.38;1867930;76;21499;-83
2021/07/08 19:07:26;;;;;;;12.33;7.85;;;;;;;28.23;51.90;100584.16;1869053;76;21040;-80
2021/07/08 19:09:52;;;;;;;13.00;8.20;;;;;;;28.17;51.83;100584.36;1867486;76;20956;-80
2021/07/08 19:12:19;;;;;;;18.23;8.40;;;;;;;28.12;51.98;100581.08;1864587;76;20945;-81
2021/07/08 19:14:45;;;;;;;82.53;11.08;;;;;;;28.05;52.18;100584.54;1864048;77;21020;-78
2021/07/08 19:17:12;;;;;;;21.75;8.45;;;;;;;27.99;52.44;100591.02;1864510;77;20970;-81
2021/07/08 19:19:42;;;;;;;8.20;6.97;;;;;;;27.90;52.61;100590.68;1872536;75;20974;-79
2021/07/08 19:22:11;;;;;;;12.00;7.35;;;;;;;27.81;52.73;100594.41;1876282;75;21001;-79
2021/07/08 19:24:43;;;;;;;15.00;8.78;;;;;;;27.74;53.07;100601.12;1863187;75;21579;-79
2021/07/08 19:27:09;;;;;;;11.70;7.60;;;;;;;27.65;53.53;100599.41;1852589;76;21341;-78
2021/07/08 19:29:37;;;;;;;13.45;8.60;;;;;;;27.56;53.90;100596.30;1867272;75;21044;-78
2021/07/08 19:32:04;;;;;;;10.25;8.53;;;;;;;27.50;54.09;100600.05;1858195;76;22011;-81
2021/07/08 19:34:31;;;;;;;9.85;8.15;;;;;;;27.41;54.43;100596.97;1887594;76;20981;-79
2021/07/08 19:36:58;;;;;;;15.53;9.15;;;;;;;27.36;54.81;100598.80;1887330;76;21028;-80
2021/07/08 19:39:27;;;;;;;15.48;8.50;;;;;;;27.32;55.35;100604.48;1866709;76;21008;-81
2021/07/08 19:41:53;;;;;;;15.20;8.58;;;;;;;27.28;55.71;100613.69;1861375;75;20936;-81
2021/07/08 19:44:20;;;;;;;16.95;9.00;;;;;;;27.23;55.70;100615.80;1869268;75;20996;-81
2021/07/08 19:46:47;;;;;;;12.98;9.90;;;;;;;27.19;55.77;100605.16;1868461;75;20975;-79
2021/07/08 19:49:14;;;;;;;12.80;8.80;;;;;;;27.12;55.90;100609.92;1839540;75;21018;-77
2021/07/08 19:51:47;;;;;;;11.78;8.95;;;;;;;27.06;56.15;100610.93;1866291;75;21412;-78
2021/07/08 19:54:16;;;;;;;11.48;9.10;;;;;;;27.01;56.05;100610.31;1837651;77;21015;-77
2021/07/08 19:56:43;;;;;;;12.18;8.80;;;;;;;26.96;56.03;100614.89;1864657;77;20979;-78
2021/07/08 19:59:09;;;;;;;18.60;9.70;;;;;;;26.90;56.01;100615.36;1865251;77;21054;-79
2021/07/08 20:01:36;;;;;;;11.25;9.03;;;;;;;26.83;56.29;100620.14;1864842;77;21034;-79
2021/07/08 20:04:02;;;;;;;17.62;8.60;;;;;;;26.79;56.85;100620.36;1864762;77;20960;-79
2021/07/08 20:06:28;;;;;;;16.80;9.83;;;;;;;26.74;57.46;100621.10;1865367;77;22219;-79
2021/07/08 20:24:19;;;;;;;12.80;10.00;;;;;;;26.28;58.24;100624.45;1714656;78;21241;-78
2021/07/08 20:26:46;;;;;;;13.13;9.18;;;;;;;26.25;58.80;100621.42;1745443;80;20969;-80
2021/07/08 20:29:13;;;;;;;14.50;9.43;;;;;;;26.22;59.11;100620.56;1720581;83;21541;-80
2021/07/08 20:31:46;;;;;;;16.80;10.72;;;;;;;26.20;58.89;100630.28;1719916;83;21005;-80
2021/07/08 20:34:14;;;;;;;16.05;9.95;;;;;;;26.18;58.95;100634.31;1761567;81;21386;-80
2021/07/08 20:36:40;;;;;;;12.75;10.78;;;;;;;26.15;59.22;100626.67;1729348;81;20999;-80
2021/07/08 20:39:08;;;;;;;13.00;10.03;;;;;;;26.09;59.71;100627.93;1706219;83;20929;-81
2021/07/08 20:41:34;;;;;;;16.52;9.85;;;;;;;26.03;60.39;100624.03;1701963;84;21028;-79
2021/07/08 20:44:01;;;;;;;15.58;8.75;;;;;;;25.97;60.54;100621.77;1703855;84;21060;-79
2021/07/08 20:46:33;;;;;;;19.85;8.60;;;;;;;25.91;60.45;100621.39;1704133;84;21551;-79
2021/07/08 20:49:01;;;;;;;10.82;8.90;;;;;;;25.86;60.36;100624.00;1704186;84;21037;-80
2021/07/08 20:51:27;;;;;;;12.95;8.58;;;;;;;25.81;60.24;100632.86;1733829;82;21488;-83
2021/07/08 20:53:53;;;;;;;14.13;8.68;;;;;;;25.77;60.39;100632.22;1742992;82;21037;-77
2021/07/08 20:56:19;;;;;;;12.23;8.35;;;;;;;25.72;60.34;100633.47;1716304;83;21064;-80
2021/07/08 20:58:46;;;;;;;10.08;9.03;;;;;;;25.63;60.45;100632.50;1716267;83;21019;-80
2021/07/08 21:01:17;;;;;;;10.05;7.67;;;;;;;25.60;60.76;100629.46;1716091;83;21034;-81
2021/07/08 21:03:44;;;;;;;18.50;9.63;;;;;;;25.57;61.13;100629.95;1716267;83;21006;-80
2021/07/08 21:06:11;;;;;;;12.68;10.32;;;;;;;25.50;61.55;100632.81;1715983;83;21066;-79
2021/07/08 21:08:37;;;;;;;13.28;8.75;;;;;;;25.49;61.71;100635.24;1715425;83;21074;-80
2021/07/08 21:11:04;;;;;;;13.13;10.80;;;;;;;25.46;61.39;100635.69;1715601;83;20979;-80
2021/07/08 21:13:30;;;;;;;11.65;9.68;;;;;;;25.40;61.38;100628.53;1716227;83;20987;-80
2021/07/08 21:15:56;;;;;;;11.83;9.48;;;;;;;25.38;61.73;100632.03;1716012;83;21062;-78
2021/07/08 21:18:23;;;;;;;20.80;10.08;;;;;;;25.31;62.34;100629.98;1716326;83;21046;-78
2021/07/08 21:20:49;;;;;;;11.35;10.15;;;;;;;25.27;63.01;100628.29;1715507;83;21660;-78
2021/07/08 21:23:16;;;;;;;11.33;8.85;;;;;;;25.23;63.05;100622.23;1694987;84;21412;-79
2021/07/08 21:25:42;;;;;;;9.35;8.13;;;;;;;25.14;62.67;100628.55;1732547;82;21045;-80
2021/07/08 21:28:08;;;;;;;12.43;9.58;;;;;;;25.06;62.60;100631.09;1731581;81;21469;-79
2021/07/08 21:30:35;;;;;;;11.15;9.05;;;;;;;24.96;62.61;100624.09;1743484;82;21034;-78
2021/07/08 21:33:03;;;;;;;10.03;8.23;;;;;;;24.89;62.57;100622.05;1717101;83;21069;-79
2021/07/08 21:35:30;;;;;;;15.95;8.65;;;;;;;24.82;62.99;100625.40;1717575;83;21041;-79
2021/07/08 21:38:03;;;;;;;10.35;9.25;;;;;;;24.76;63.28;100625.28;1740741;82;21050;-79
2021/07/08 21:40:29;;;;;;;14.58;8.25;;;;;;;24.71;63.29;100630.57;1747386;82;20999;-81
2021/07/08 21:42:56;;;;;;;15.70;8.05;;;;;;;24.67;63.20;100622.64;1737821;81;20994;-79
2021/07/08 21:45:24;;;;;;;16.23;8.78;;;;;;;24.63;63.11;100626.89;1730718;82;20975;-80
2021/07/08 21:47:54;;;;;;;10.63;8.88;;;;;;;24.56;63.22;100619.94;1739837;82;21058;-80
2021/07/08 21:50:23;;;;;;;9.08;8.20;;;;;;;24.50;63.28;100616.30;1718928;82;21493;-80
2021/07/08 21:52:48;;;;;;;12.70;8.65;;;;;;;24.42;63.41;100613.91;1724004;81;21609;-80
2021/07/08 21:55:14;;;;;;;14.53;8.43;;;;;;;24.39;63.98;100612.48;1741258;82;21023;-79
2021/07/08 21:57:41;;;;;;;11.95;9.98;;;;;;;24.39;64.12;100619.78;1745207;82;21593;-77
2021/07/08 22:00:10;;;;;;;10.38;9.38;;;;;;;24.40;64.17;100620.92;1717428;83;21002;-77
2021/07/08 22:02:37;;;;;;;12.23;8.88;;;;;;;24.39;64.30;100628.72;1717501;83;21057;-76
2021/07/08 22:05:05;;;;;;;12.82;10.32;;;;;;;24.38;63.96;100631.67;1728805;81;20995;-77
2021/07/08 22:07:31;;;;;;;17.27;9.98;;;;;;;24.36;64.05;100629.72;1746414;82;21014;-77
2021/07/08 22:09:58;;;;;;;13.08;9.03;;;;;;;24.32;64.02;100626.13;1722337;82;21022;-75
2021/07/08 22:12:24;;;;;;;12.55;9.03;;;;;;;24.32;64.21;100626.13;1717762;83;21595;-77
2021/07/08 22:14:50;;;;;;;14.45;7.58;;;;;;;24.27;64.13;100624.65;1717717;83;21030;-77
2021/07/08 22:17:16;;;;;;;14.53;8.35;;;;;;;24.25;64.37;100623.23;1717480;83;20995;-77
2021/07/08 22:19:42;;;;;;;13.13;7.72;;;;;;;24.20;64.27;100616.37;1727850;82;20980;-77
2021/07/08 22:22:09;;;;;;;10.75;8.98;;;;;;;24.14;64.44;100623.53;1747026;82;21477;-77
2021/07/08 22:24:35;;;;;;;10.82;7.78;;;;;;;24.10;64.22;100627.73;1747209;82;21624;-77
2021/07/08 22:27:03;;;;;;;9.55;8.55;;;;;;;24.06;64.24;100627.92;1746046;82;21051;-77
2021/07/08 22:29:29;;;;;;;12.25;9.30;;;;;;;24.02;64.73;100625.36;1741021;81;21851;-81
2021/07/08 22:31:56;;;;;;;15.70;10.05;;;;;;;24.00;64.92;100628.31;1745471;81;21060;-79
2021/07/08 22:34:23;;;;;;;12.05;8.25;;;;;;;24.00;65.15;100629.66;1742303;81;21510;-78
2021/07/08 22:36:50;;;;;;;13.10;9.83;;;;;;;23.99;64.91;100634.76;1749946;81;20986;-81
2021/07/08 22:39:18;;;;;;;10.75;9.65;;;;;;;23.97;64.93;100634.19;1737953;81;20977;-77
2021/07/08 22:41:44;;;;;;;11.95;8.85;;;;;;;23.98;64.78;100636.36;1742015;81;20997;-80
2021/07/08 22:44:12;;;;;;;13.05;10.18;;;;;;;23.96;64.61;100637.11;1742564;82;21008;-80
2021/07/08 22:46:38;;;;;;;12.03;9.05;;;;;;;23.94;65.06;100637.86;1741492;82;21011;-80
2021/07/08 22:49:05;;;;;;;13.48;9.38;;;;;;;23.90;65.37;100636.68;1723639;81;21005;-81
2021/07/08 22:51:32;;;;;;;14.28;9.03;;;;;;;23.90;65.45;100628.58;1762014;81;20969;-81
2021/07/08 22:53:58;;;;;;;11.73;9.28;;;;;;;23.90;65.23;100629.39;1767434;81;21536;-81
2021/07/08 22:56:24;;;;;;;10.38;9.43;;;;;;;23.87;65.18;100627.15;1742441;81;21039;-81
2021/07/08 22:58:51;;;;;;;13.93;9.33;;;;;;;23.85;64.95;100622.49;1744041;80;21020;-81
2021/07/08 23:01:17;;;;;;;11.50;9.40;;;;;;;23.81;64.96;100630.25;1771010;80;21028;-81
2021/07/08 23:03:44;;;;;;;10.08;8.38;;;;;;;23.79;65.44;100629.64;1753343;80;21016;-81
2021/07/08 23:06:10;;;;;;;13.25;8.90;;;;;;;23.75;65.68;100623.59;1762859;80;21505;-82
2021/07/08 23:08:36;;;;;;;12.47;8.63;;;;;;;23.70;66.00;100616.66;1749308;80;20988;-82
2021/07/08 23:11:02;;;;;;;10.32;8.73;;;;;;;23.68;66.02;100608.80;1710011;83;20997;-81
2021/07/08 23:13:28;;;;;;;9.48;8.45;;;;;;;23.65;65.94;100606.56;1709190;84;21024;-81
2021/07/08 23:15:55;;;;;;;13.28;9.23;;;;;;;23.61;65.94;100608.06;1708882;84;21068;-81
2021/07/08 23:18:22;;;;;;;9.83;8.80;;;;;;;23.56;66.10;100607.91;1712514;82;21520;-82
2021/07/08 23:20:49;;;;;;;10.13;8.83;;;;;;;23.55;66.26;100606.28;1737929;82;21900;-82
2021/07/08 23:23:15;;;;;;;11.08;7.92;;;;;;;23.52;66.49;100604.86;1759986;81;20976;-81
2021/07/08 23:25:41;;;;;;;10.98;8.53;;;;;;;23.53;66.45;100605.67;1732724;81;21507;-81
2021/07/08 23:28:08;;;;;;;13.25;10.18;;;;;;;23.52;66.14;100606.20;1750655;82;21024;-81
2021/07/08 23:30:34;;;;;;;10.10;9.10;;;;;;;23.50;65.94;100612.36;1740831;80;21616;-82
2021/07/08 23:33:00;;;;;;;12.15;8.90;;;;;;;23.49;65.93;100612.59;1737984;81;20983;-82
2021/07/08 23:35:26;;;;;;;10.48;8.98;;;;;;;23.44;66.21;100601.11;1758209;81;21028;-81
2021/07/08 23:37:53;;;;;;;11.25;8.15;;;;;;;23.41;66.41;100601.05;1730382;83;21528;-81
2021/07/08 23:40:22;;;;;;;11.73;8.93;;;;;;;23.40;66.56;100604.81;1729313;83;21009;-81
